Time;durP1;ratioP1;P1;durP2;ratioP2;P2;SDS_P1;SDS_P2;PMS_P1;PMS_P2;Temp;Humidity;BMP_temperature;BMP_pressure;BME280_temperature;BME280_humidity;BME280_pressure;Samples;Min_cycle;Max_cycle;Signal;HPM_P1;HPM_P2
2022/10/17 00:01:05;;;;;;;11.50;5.28;;;19.50;99.90;;;;;;5067588;28;20045;-86
2022/10/17 00:03:32;;;;;;;16.40;5.22;;;19.60;99.90;;;;;;5063162;28;20272;-86
2022/10/17 00:05:57;;;;;;;14.10;5.00;;;19.70;99.90;;;;;;5076952;28;20036;-85
2022/10/17 00:08:23;;;;;;;13.73;5.13;;;19.70;99.90;;;;;;5075714;28;20021;-86
2022/10/17 00:11:00;;;;;;;13.07;5.40;;;19.70;99.90;;;;;;5054167;28;20072;-85
2022/10/17 00:13:26;;;;;;;14.75;5.13;;;19.70;99.90;;;;;;5071829;28;20371;-86
2022/10/17 00:15:52;;;;;;;9.23;4.95;;;19.70;99.90;;;;;;5063797;28;20021;-86
2022/10/17 00:18:18;;;;;;;13.05;4.97;;;19.80;99.90;;;;;;5064810;28;20021;-86
2022/10/17 00:20:44;;;;;;;16.65;5.88;;;19.70;99.90;;;;;;5059431;28;20236;-86
2022/10/17 00:23:10;;;;;;;10.18;4.85;;;19.80;99.90;;;;;;5062887;28;20268;-86
2022/10/17 00:25:35;;;;;;;12.65;4.90;;;19.80;99.90;;;;;;5061190;28;20017;-86
2022/10/17 00:28:02;;;;;;;11.13;5.20;;;19.90;99.90;;;;;;5064474;28;20013;-86
2022/10/17 00:30:28;;;;;;;15.88;5.75;;;19.90;99.90;;;;;;5070901;28;20019;-85
2022/10/17 00:32:53;;;;;;;17.23;5.80;;;19.90;99.90;;;;;;5066003;28;20212;-86
2022/10/17 00:35:19;;;;;;;17.17;5.68;;;19.80;99.90;;;;;;5064936;28;20031;-86
2022/10/17 00:37:45;;;;;;;13.82;5.60;;;19.80;99.90;;;;;;5061938;28;20029;-86
2022/10/17 00:40:11;;;;;;;15.23;5.75;;;19.70;99.90;;;;;;5065660;28;20032;-86
2022/10/17 00:42:37;;;;;;;16.75;5.95;;;19.60;99.90;;;;;;5063283;28;20209;-86
2022/10/17 00:45:13;;;;;;;12.70;6.15;;;19.60;99.90;;;;;;5063162;28;20020;-85
2022/10/17 00:47:39;;;;;;;17.25;6.03;;;19.60;99.90;;;;;;5061323;28;20025;-85
2022/10/17 00:50:06;;;;;;;16.15;6.88;;;19.50;99.90;;;;;;5061975;28;20354;-86
2022/10/17 00:52:32;;;;;;;18.50;6.20;;;19.50;99.90;;;;;;5079605;28;20080;-86
2022/10/17 00:55:28;;;;;;;17.52;6.30;;;19.40;99.90;;;;;;5063481;28;20559;-86
2022/10/17 00:57:54;;;;;;;16.58;6.95;;;19.30;99.90;;;;;;5058770;28;20039;-86
2022/10/17 01:00:21;;;;;;;17.90;6.80;;;19.20;99.90;;;;;;5065493;28;20052;-86
2022/10/17 01:02:47;;;;;;;23.13;7.63;;;19.20;99.90;;;;;;5070122;28;20310;-86
2022/10/17 01:05:14;;;;;;;27.27;8.45;;;19.20;99.90;;;;;;5071972;28;20040;-87
2022/10/17 01:07:41;;;;;;;18.98;7.70;;;19.10;99.90;;;;;;5066412;28;20119;-86
2022/10/17 01:10:07;;;;;;;24.48;8.70;;;19.10;99.90;;;;;;5067819;28;20029;-86
2022/10/17 01:12:40;;;;;;;26.40;9.25;;;19.00;99.90;;;;;;5069649;28;20036;-87
2022/10/17 01:15:29;;;;;;;24.25;9.48;;;19.00;99.90;;;;;;5076701;28;20025;-86
2022/10/17 01:18:06;;;;;;;31.38;10.38;;;18.90;99.90;;;;;;5061629;28;20029;-88
2022/10/17 01:21:06;;;;;;;28.60;9.73;;;18.90;99.90;;;;;;5065917;28;20035;-85
2022/10/17 01:23:51;;;;;;;31.95;11.00;;;18.90;99.90;;;;;;5077592;28;20012;-86
2022/10/17 01:26:41;;;;;;;36.22;11.95;;;18.80;99.90;;;;;;5063973;28;20213;-85
2022/10/17 01:29:29;;;;;;;38.08;11.80;;;18.80;99.90;;;;;;5072572;28;20271;-86
2022/10/17 01:32:17;;;;;;;33.85;12.20;;;18.80;99.90;;;;;;5074455;28;20317;-85
2022/10/17 01:34:55;;;;;;;39.78;13.43;;;18.80;99.90;;;;;;5068504;28;20112;-85
2022/10/17 01:37:30;;;;;;;38.47;12.63;;;18.80;99.90;;;;;;5069610;28;20059;-85
2022/10/17 01:40:06;;;;;;;39.88;13.15;;;18.80;99.90;;;;;;5073259;28;20028;-87
2022/10/17 01:42:44;;;;;;;35.25;13.65;;;18.80;99.90;;;;;;5066894;28;20127;-86
2022/10/17 01:45:40;;;;;;;40.78;14.40;;;18.70;99.90;;;;;;5067067;28;20024;-86
2022/10/17 01:48:16;;;;;;;33.22;13.95;;;18.70;99.90;;;;;;5063653;28;20041;-86
2022/10/17 01:50:47;;;;;;;34.95;13.18;;;18.70;99.90;;;;;;5063991;28;20043;-86
2022/10/17 01:53:22;;;;;;;33.60;14.07;;;18.70;99.90;;;;;;5070082;28;20247;-87
2022/10/17 01:55:50;;;;;;;36.30;12.55;;;18.70;99.90;;;;;;5074524;28;20052;-87
2022/10/17 01:58:32;;;;;;;36.67;13.77;;;18.70;99.90;;;;;;5067912;28;20025;-87
2022/10/17 02:01:03;;;;;;;32.58;14.13;;;18.60;99.90;;;;;;5076883;28;20032;-87
2022/10/17 02:03:31;;;;;;;41.97;13.38;;;18.60;99.90;;;;;;5070675;28;20020;-87
2022/10/17 02:05:56;;;;;;;38.72;14.18;;;18.60;99.90;;;;;;5073001;28;20024;-87
2022/10/17 02:08:46;;;;;;;27.85;11.45;;;18.60;99.90;;;;;;5062274;28;20017;-88
2022/10/17 02:11:14;;;;;;;42.40;12.10;;;18.50;99.90;;;;;;5059949;28;20037;-87
2022/10/17 02:13:48;;;;;;;31.92;12.20;;;18.50;99.90;;;;;;5060503;28;20056;-86
2022/10/17 02:16:48;;;;;;;30.77;12.10;;;18.50;99.90;;;;;;5060603;28;20048;-88
2022/10/17 02:19:32;;;;;;;37.83;11.75;;;18.50;99.90;;;;;;5059868;28;20025;-87
2022/10/17 02:22:22;;;;;;;34.15;11.55;;;18.50;99.90;;;;;;5075281;28;20032;-88
2022/10/17 02:24:58;;;;;;;36.78;12.73;;;18.50;99.90;;;;;;5055032;28;20025;-86
2022/10/17 02:27:45;;;;;;;35.50;11.38;;;18.50;99.90;;;;;;5061366;28;20052;-87
2022/10/17 02:30:30;;;;;;;25.70;11.00;;;18.50;99.90;;;;;;5068082;28;20501;-86
2022/10/17 02:33:10;;;;;;;35.90;10.45;;;18.50;99.90;;;;;;5056542;28;20100;-87
2022/10/17 02:35:40;;;;;;;31.50;9.95;;;18.40;99.90;;;;;;5056930;28;20883;-87
2022/10/17 02:38:08;;;;;;;29.83;9.23;;;18.40;99.90;;;;;;5070774;28;20020;-87
2022/10/17 02:40:36;;;;;;;21.08;8.20;;;18.40;99.90;;;;;;5064172;28;20103;-87
2022/10/17 02:43:01;;;;;;;28.38;9.02;;;18.40;99.90;;;;;;5063498;28;20504;-86
2022/10/17 02:45:29;;;;;;;21.65;8.68;;;18.40;99.90;;;;;;5056129;28;20041;-87
2022/10/17 02:48:01;;;;;;;23.95;8.48;;;18.40;99.90;;;;;;5052466;28;20111;-87
2022/10/17 02:50:51;;;;;;;27.00;7.78;;;18.30;99.90;;;;;;5052046;28;20105;-86
2022/10/17 02:53:27;;;;;;;18.08;7.55;;;18.30;99.90;;;;;;5041977;28;20078;-87
2022/10/17 02:55:58;;;;;;;25.40;7.55;;;18.30;99.90;;;;;;5070569;28;20071;-87
2022/10/17 02:58:29;;;;;;;21.80;7.70;;;18.30;99.90;;;;;;5067146;28;20043;-87
2022/10/17 03:00:57;;;;;;;19.35;7.45;;;18.20;99.90;;;;;;5061534;28;20336;-87
2022/10/17 03:03:28;;;;;;;24.90;7.88;;;18.30;99.90;;;;;;5062763;28;20031;-87
2022/10/17 03:05:54;;;;;;;24.83;7.82;;;18.30;99.90;;;;;;5076175;28;20390;-87
2022/10/17 03:08:20;;;;;;;25.50;7.35;;;18.20;99.90;;;;;;5071902;28;20032;-87
2022/10/17 03:10:46;;;;;;;21.17;7.22;;;18.20;99.90;;;;;;5064084;28;20075;-86
2022/10/17 03:13:12;;;;;;;16.15;6.80;;;18.20;99.90;;;;;;5069202;28;20031;-88
2022/10/17 03:15:38;;;;;;;22.90;6.90;;;18.20;99.90;;;;;;5063043;28;20371;-87
2022/10/17 03:18:03;;;;;;;24.52;7.63;;;18.10;99.90;;;;;;5067242;28;20024;-87
2022/10/17 03:20:29;;;;;;;22.58;7.32;;;18.10;99.90;;;;;;5068928;28;20029;-87
2022/10/17 03:22:55;;;;;;;25.88;8.38;;;18.10;99.90;;;;;;5053900;28;20036;-86
2022/10/17 03:25:21;;;;;;;15.85;6.57;;;18.10;99.90;;;;;;5062245;28;20046;-86
2022/10/17 03:27:46;;;;;;;20.70;6.40;;;18.10;99.90;;;;;;5050926;28;20028;-87
2022/10/17 03:30:12;;;;;;;25.33;7.30;;;18.00;99.90;;;;;;5061907;28;20371;-86
2022/10/17 03:32:38;;;;;;;24.38;7.00;;;18.00;99.90;;;;;;5064622;28;20029;-86
2022/10/17 03:35:04;;;;;;;23.15;7.53;;;18.10;99.90;;;;;;5058023;28;20052;-86
2022/10/17 03:37:29;;;;;;;22.73;6.95;;;18.10;99.90;;;;;;5055973;28;20516;-86
2022/10/17 03:39:55;;;;;;;22.00;6.75;;;18.10;99.90;;;;;;5054778;28;20493;-86
2022/10/17 03:42:20;;;;;;;24.92;7.25;;;18.10;99.90;;;;;;5055479;28;20033;-87
2022/10/17 03:44:46;;;;;;;23.63;7.35;;;18.10;99.90;;;;;;5054542;28;20021;-86
2022/10/17 03:47:12;;;;;;;29.60;7.60;;;18.10;99.90;;;;;;5054396;28;20102;-86
2022/10/17 03:49:37;;;;;;;28.08;7.18;;;18.10;99.90;;;;;;5050902;28;20064;-86
2022/10/17 03:52:03;;;;;;;31.20;7.78;;;18.10;99.90;;;;;;5059828;28;20032;-87
2022/10/17 03:54:29;;;;;;;25.88;7.93;;;18.10;99.90;;;;;;5078095;28;20040;-86
2022/10/17 03:56:54;;;;;;;27.75;7.40;;;18.10;99.90;;;;;;5067852;28;20021;-86
2022/10/17 03:59:20;;;;;;;29.02;8.00;;;18.10;99.90;;;;;;5067019;28;20020;-86
2022/10/17 04:01:46;;;;;;;20.10;7.30;;;18.10;99.90;;;;;;5065881;28;20353;-87
2022/10/17 04:04:11;;;;;;;20.95;7.45;;;18.10;99.90;;;;;;5069407;28;20024;-87
2022/10/17 04:06:37;;;;;;;22.17;7.85;;;18.10;99.90;;;;;;5079604;28;20084;-86
2022/10/17 04:09:04;;;;;;;25.38;8.15;;;18.10;99.90;;;;;;5063421;28;20032;-86
2022/10/17 04:11:29;;;;;;;22.08;7.68;;;18.10;99.90;;;;;;5069252;28;20000;-86
2022/10/17 04:13:56;;;;;;;19.92;7.40;;;18.10;99.90;;;;;;5065199;28;20101;-87
2022/10/17 04:16:23;;;;;;;22.67;8.07;;;18.10;99.90;;;;;;5067670;28;20020;-86
2022/10/17 04:18:54;;;;;;;21.67;8.20;;;18.10;99.90;;;;;;5074071;28;20084;-86
2022/10/17 04:21:20;;;;;;;17.50;7.65;;;18.10;99.90;;;;;;5062820;28;20078;-87
2022/10/17 04:23:45;;;;;;;15.32;6.82;;;18.20;99.90;;;;;;5060370;28;20028;-86
2022/10/17 04:26:11;;;;;;;18.88;7.25;;;18.10;99.90;;;;;;5063374;28;20028;-86
2022/10/17 04:28:37;;;;;;;19.10;7.45;;;18.20;99.90;;;;;;5067387;28;20044;-86
2022/10/17 04:31:08;;;;;;;15.27;7.32;;;18.20;99.90;;;;;;5065044;28;20056;-86
2022/10/17 04:33:34;;;;;;;15.65;7.20;;;18.10;99.90;;;;;;5065065;28;20052;-87
2022/10/17 04:36:11;;;;;;;22.98;7.85;;;18.10;99.90;;;;;;5061483;28;20141;-86
2022/10/17 04:38:36;;;;;;;19.42;7.30;;;18.20;99.90;;;;;;5057881;28;20040;-87
2022/10/17 04:41:05;;;;;;;20.08;8.43;;;18.10;99.90;;;;;;5052850;28;20112;-86
2022/10/17 04:43:35;;;;;;;19.15;7.95;;;18.10;99.90;;;;;;5054905;28;20017;-85
2022/10/17 04:46:04;;;;;;;19.10;7.47;;;18.10;99.90;;;;;;5051131;28;20028;-86
2022/10/17 04:48:30;;;;;;;19.85;7.88;;;18.10;99.90;;;;;;5053591;28;20029;-87
2022/10/17 04:51:01;;;;;;;22.83;7.90;;;18.10;99.90;;;;;;5054126;28;20078;-86
2022/10/17 04:53:29;;;;;;;18.27;8.05;;;18.10;99.90;;;;;;5053695;28;20163;-86
2022/10/17 04:55:54;;;;;;;15.13;7.03;;;18.10;99.90;;;;;;5065355;28;20082;-86
2022/10/17 04:58:20;;;;;;;18.17;7.95;;;18.00;99.90;;;;;;5059044;28;20083;-86
2022/10/17 05:00:46;;;;;;;20.92;8.00;;;18.00;99.90;;;;;;5060861;28;20040;-86
2022/10/17 05:03:12;;;;;;;18.27;8.10;;;18.00;99.90;;;;;;5066225;28;20078;-86
2022/10/17 05:05:38;;;;;;;21.02;8.25;;;18.10;99.90;;;;;;5061889;28;20119;-86
2022/10/17 05:08:06;;;;;;;20.23;7.93;;;18.10;99.90;;;;;;5063804;28;20023;-86
2022/10/17 05:10:45;;;;;;;18.35;7.97;;;18.00;99.90;;;;;;5058529;28;20060;-86
2022/10/17 05:13:11;;;;;;;21.02;8.45;;;18.00;99.90;;;;;;5061952;28;20050;-86
2022/10/17 05:15:37;;;;;;;20.00;8.75;;;18.00;99.90;;;;;;5062046;28;20028;-86
2022/10/17 05:18:04;;;;;;;26.65;10.18;;;18.00;99.90;;;;;;5065411;28;20028;-86
2022/10/17 05:20:30;;;;;;;27.48;10.77;;;18.00;99.90;;;;;;5055475;28;20031;-85
2022/10/17 05:22:58;;;;;;;29.02;11.00;;;18.00;99.90;;;;;;5070866;28;20511;-86
2022/10/17 05:25:24;;;;;;;25.45;10.80;;;18.00;99.90;;;;;;5059539;28;20052;-87
2022/10/17 05:27:50;;;;;;;34.03;10.80;;;18.00;99.90;;;;;;5074912;28;20109;-86
2022/10/17 05:30:16;;;;;;;28.83;10.73;;;18.00;99.90;;;;;;5055992;28;20040;-86
2022/10/17 05:32:41;;;;;;;24.98;10.20;;;18.00;99.90;;;;;;5078126;28;20028;-86
2022/10/17 05:35:07;;;;;;;29.45;10.57;;;18.00;99.90;;;;;;5081798;28;20422;-86
2022/10/17 05:37:33;;;;;;;29.55;11.05;;;18.00;99.90;;;;;;5074270;28;20020;-85
2022/10/17 05:39:58;;;;;;;26.42;10.40;;;18.00;99.90;;;;;;5081277;28;20025;-86
2022/10/17 05:42:24;;;;;;;26.20;10.02;;;18.00;99.90;;;;;;5071426;28;20024;-86
2022/10/17 05:44:50;;;;;;;24.67;10.85;;;18.00;99.90;;;;;;5071168;28;20035;-85
2022/10/17 05:47:16;;;;;;;31.23;11.15;;;18.00;99.90;;;;;;5071386;28;20028;-86
2022/10/17 05:49:41;;;;;;;31.15;11.25;;;17.90;99.90;;;;;;5076260;28;20017;-86
2022/10/17 05:52:07;;;;;;;29.67;10.88;;;18.00;99.90;;;;;;5087239;28;20016;-86
2022/10/17 05:54:33;;;;;;;39.58;11.80;;;17.90;99.90;;;;;;5071471;28;20630;-86
2022/10/17 05:56:58;;;;;;;30.52;11.38;;;17.90;99.90;;;;;;5071280;28;20027;-86
2022/10/17 05:59:25;;;;;;;32.53;9.88;;;17.90;99.90;;;;;;5069753;28;20024;-85
2022/10/17 06:01:51;;;;;;;31.45;11.43;;;17.90;99.90;;;;;;5070934;28;20111;-86
2022/10/17 06:04:17;;;;;;;34.60;11.15;;;17.90;99.90;;;;;;5083147;28;20028;-86
2022/10/17 06:06:43;;;;;;;32.13;11.10;;;17.80;99.90;;;;;;5070915;28;20616;-85
2022/10/17 06:09:09;;;;;;;27.40;10.57;;;17.80;99.90;;;;;;5082191;28;20059;-85
2022/10/17 06:11:35;;;;;;;29.45;10.55;;;17.90;99.90;;;;;;5071099;28;20032;-85
2022/10/17 06:14:02;;;;;;;31.75;10.52;;;17.80;99.90;;;;;;5070769;28;20052;-86
2022/10/17 06:16:27;;;;;;;32.78;10.55;;;17.80;99.90;;;;;;5064426;28;20040;-85
2022/10/17 06:18:53;;;;;;;32.83;10.32;;;17.80;99.90;;;;;;5063760;28;20021;-86
2022/10/17 06:21:23;;;;;;;32.70;11.52;;;17.80;99.90;;;;;;5068472;28;20082;-86
2022/10/17 06:23:48;;;;;;;30.30;10.50;;;17.70;99.90;;;;;;5066539;28;20021;-85
2022/10/17 06:26:14;;;;;;;26.17;10.57;;;17.70;99.90;;;;;;5069266;28;20029;-85
2022/10/17 06:28:41;;;;;;;27.20;10.93;;;17.70;99.90;;;;;;5068860;28;20028;-86
2022/10/17 06:31:15;;;;;;;24.27;11.10;;;17.70;99.90;;;;;;5075704;28;20229;-86
2022/10/17 06:33:41;;;;;;;36.60;10.15;;;17.70;99.90;;;;;;5066909;28;20052;-86
2022/10/17 06:36:09;;;;;;;26.60;10.60;;;17.80;99.90;;;;;;5067657;28;20024;-86
2022/10/17 06:38:35;;;;;;;28.83;10.05;;;17.70;99.90;;;;;;5055844;28;20024;-86
2022/10/17 06:41:12;;;;;;;24.52;9.98;;;17.70;99.90;;;;;;5053891;28;20025;-85
2022/10/17 06:43:38;;;;;;;32.05;9.38;;;17.80;99.90;;;;;;5056206;28;20044;-86
2022/10/17 06:46:05;;;;;;;34.22;10.77;;;17.70;99.90;;;;;;5070525;28;20257;-85
2022/10/17 06:48:30;;;;;;;33.60;9.93;;;17.80;99.90;;;;;;5072290;28;20005;-86
2022/10/17 06:51:00;;;;;;;24.10;9.18;;;17.80;99.90;;;;;;5063337;28;20039;-85
2022/10/17 06:53:31;;;;;;;31.63;9.90;;;17.80;99.90;;;;;;5062711;28;20309;-86
2022/10/17 06:56:03;;;;;;;28.90;8.27;;;17.80;99.90;;;;;;5066796;28;20030;-85
2022/10/17 06:58:31;;;;;;;23.05;8.18;;;17.80;99.90;;;;;;5072644;28;20080;-86
2022/10/17 07:01:04;;;;;;;34.85;9.50;;;17.90;99.90;;;;;;5071420;28;20384;-86
2022/10/17 07:03:30;;;;;;;25.70;8.35;;;17.90;99.90;;;;;;5065633;28;20035;-86
2022/10/17 07:05:57;;;;;;;28.55;8.00;;;17.90;99.90;;;;;;5077667;28;20341;-87
2022/10/17 07:08:23;;;;;;;27.13;9.32;;;17.90;99.90;;;;;;5071313;28;20020;-86
2022/10/17 07:10:49;;;;;;;26.35;8.50;;;17.90;99.90;;;;;;5068347;28;20044;-85
2022/10/17 07:13:15;;;;;;;27.25;8.23;;;18.00;99.90;;;;;;5061319;28;20035;-85
2022/10/17 07:15:41;;;;;;;26.10;8.02;;;18.00;99.90;;;;;;5066878;28;20036;-87
2022/10/17 07:18:07;;;;;;;27.55;8.73;;;18.00;99.90;;;;;;5053529;28;20021;-86
2022/10/17 07:20:33;;;;;;;25.00;7.70;;;18.00;99.90;;;;;;5053562;28;20072;-86
2022/10/17 07:22:59;;;;;;;31.67;8.82;;;18.00;99.90;;;;;;5057618;28;20486;-86
2022/10/17 07:25:24;;;;;;;27.52;7.38;;;18.00;99.90;;;;;;5071946;28;20032;-86
2022/10/17 07:27:51;;;;;;;29.05;7.50;;;18.00;99.90;;;;;;5067467;28;20078;-86
2022/10/17 07:30:18;;;;;;;26.92;7.32;;;18.00;99.90;;;;;;5061374;28;20025;-85
2022/10/17 07:32:44;;;;;;;31.05;7.03;;;18.00;99.90;;;;;;5073280;28;20016;-86
2022/10/17 07:35:10;;;;;;;24.45;6.53;;;17.90;99.90;;;;;;5065522;28;20445;-87
2022/10/17 07:37:36;;;;;;;27.13;5.95;;;18.00;99.90;;;;;;5072852;28;20051;-86
2022/10/17 07:40:05;;;;;;;28.90;6.88;;;17.90;99.90;;;;;;5065454;28;20048;-86
2022/10/17 07:42:31;;;;;;;25.42;5.78;;;17.90;99.90;;;;;;5070009;28;20029;-86
2022/10/17 07:44:57;;;;;;;24.88;6.32;;;17.90;99.90;;;;;;5075576;28;20025;-86
2022/10/17 07:47:23;;;;;;;31.50;5.63;;;17.90;99.90;;;;;;5071448;28;20508;-86
2022/10/17 07:49:49;;;;;;;23.80;6.45;;;17.90;99.90;;;;;;5064710;28;20085;-86
2022/10/17 07:52:16;;;;;;;23.55;6.22;;;18.00;99.90;;;;;;5057667;28;20473;-86
2022/10/17 07:54:42;;;;;;;26.35;5.72;;;17.90;99.90;;;;;;5060892;28;20025;-85
2022/10/17 07:57:08;;;;;;;37.67;7.03;;;18.00;99.90;;;;;;5056518;28;20024;-85
2022/10/17 07:59:34;;;;;;;32.90;6.35;;;18.00;99.90;;;;;;5056953;28;20032;-86
2022/10/17 08:02:00;;;;;;;21.48;5.63;;;18.00;99.90;;;;;;5065876;28;20068;-84
2022/10/17 08:04:26;;;;;;;30.30;5.57;;;18.00;99.90;;;;;;5061812;28;20055;-86
2022/10/17 08:06:52;;;;;;;29.08;6.30;;;18.10;99.90;;;;;;5064049;28;20036;-87
2022/10/17 08:09:18;;;;;;;22.90;6.18;;;18.10;99.90;;;;;;5055835;28;20017;-86
2022/10/17 08:11:44;;;;;;;29.63;5.90;;;18.20;99.90;;;;;;5059451;28;20580;-85
2022/10/17 08:14:11;;;;;;;27.17;5.93;;;18.20;99.90;;;;;;5054834;28;20249;-86
2022/10/17 08:16:37;;;;;;;22.70;5.78;;;18.20;99.90;;;;;;5056536;28;20031;-86
2022/10/17 08:19:03;;;;;;;15.35;4.90;;;18.20;99.90;;;;;;5052328;28;20021;-86
2022/10/17 08:21:29;;;;;;;25.90;5.88;;;18.20;99.90;;;;;;5053838;28;20667;-87
2022/10/17 08:23:55;;;;;;;21.42;5.70;;;18.30;99.90;;;;;;5054877;28;20017;-86
2022/10/17 08:26:21;;;;;;;25.73;5.65;;;18.20;99.90;;;;;;5061124;28;20037;-87
2022/10/17 08:28:47;;;;;;;24.60;5.97;;;18.20;99.90;;;;;;5059962;28;20337;-85
2022/10/17 08:31:18;;;;;;;24.20;5.28;;;18.30;99.90;;;;;;5060011;28;20028;-86
2022/10/17 08:33:45;;;;;;;22.05;5.53;;;18.30;99.90;;;;;;5070103;28;20032;-86
2022/10/17 08:36:13;;;;;;;19.65;5.78;;;18.40;99.90;;;;;;5069573;28;20029;-86
2022/10/17 08:38:41;;;;;;;23.08;5.53;;;18.40;99.90;;;;;;5078615;28;20054;-86
2022/10/17 08:41:46;;;;;;;15.00;4.82;;;18.40;99.90;;;;;;5080705;28;20036;-86
2022/10/17 08:44:17;;;;;;;17.53;4.67;;;18.50;99.90;;;;;;5072239;28;20492;-87
2022/10/17 08:46:47;;;;;;;23.13;5.35;;;18.40;99.90;;;;;;5072289;28;20290;-86
2022/10/17 08:49:30;;;;;;;17.60;5.15;;;18.50;99.90;;;;;;5064305;28;20024;-86
2022/10/17 08:52:03;;;;;;;18.52;4.97;;;18.50;99.90;;;;;;5066434;28;20071;-86
2022/10/17 08:54:34;;;;;;;16.63;5.10;;;18.50;99.90;;;;;;5075482;28;20021;-87
2022/10/17 08:56:59;;;;;;;22.30;5.72;;;18.50;99.90;;;;;;5074106;28;20096;-86
2022/10/17 08:59:27;;;;;;;21.80;5.68;;;18.40;99.90;;;;;;5074153;28;20051;-86
2022/10/17 09:02:00;;;;;;;18.95;5.30;;;18.40;99.90;;;;;;5065581;28;20151;-86
2022/10/17 09:04:48;;;;;;;22.77;5.32;;;18.50;99.90;;;;;;5080136;28;20027;-86
2022/10/17 09:07:43;;;;;;;17.13;4.82;;;18.50;99.90;;;;;;5068011;28;20025;-86
2022/10/17 09:10:17;;;;;;;12.85;4.32;;;18.60;99.90;;;;;;5072967;28;20384;-86
2022/10/17 09:13:08;;;;;;;18.53;4.77;;;18.60;99.90;;;;;;5070044;28;20084;-86
2022/10/17 09:16:00;;;;;;;18.77;4.80;;;18.70;99.90;;;;;;5067451;28;20055;-86
2022/10/17 09:18:27;;;;;;;24.15;5.03;;;18.90;99.90;;;;;;5067752;28;20104;-86
2022/10/17 09:20:59;;;;;;;20.50;4.78;;;18.90;99.90;;;;;;5061887;28;20097;-86
2022/10/17 09:23:35;;;;;;;17.40;4.75;;;19.00;99.90;;;;;;5058066;28;20028;-86
2022/10/17 09:26:01;;;;;;;22.27;4.78;;;19.10;99.90;;;;;;5061862;28;20387;-86
2022/10/17 09:28:33;;;;;;;14.80;4.32;;;19.20;99.90;;;;;;5055168;28;20056;-86
2022/10/17 09:31:02;;;;;;;17.75;4.55;;;19.30;99.90;;;;;;5072843;28;20213;-86
2022/10/17 09:33:33;;;;;;;17.55;4.65;;;19.40;99.90;;;;;;5072577;28;20142;-86
2022/10/17 09:36:01;;;;;;;18.67;4.13;;;19.30;99.90;;;;;;5068746;28;20064;-85
2022/10/17 09:38:43;;;;;;;18.73;4.05;;;19.30;99.90;;;;;;5076056;28;20020;-87
2022/10/17 09:41:26;;;;;;;15.98;4.43;;;19.20;99.90;;;;;;5071621;28;20035;-86
2022/10/17 09:43:55;;;;;;;14.07;4.30;;;19.40;99.90;;;;;;5076465;28;20269;-87
2022/10/17 09:46:30;;;;;;;11.75;3.70;;;19.40;99.90;;;;;;5064990;28;20285;-86
2022/10/17 09:49:09;;;;;;;;;;;19.40;99.90;;;;;;5067154;28;20305;-84
2022/10/17 09:51:37;;;;;;;15.38;3.70;;;19.40;99.90;;;;;;5064552;28;19955;-84
2022/10/17 09:54:11;;;;;;;10.93;3.88;;;19.40;99.90;;;;;;5073781;28;20033;-86
2022/10/17 09:56:59;;;;;;;12.00;4.03;;;19.30;99.90;;;;;;5080885;28;20401;-85
2022/10/17 09:59:35;;;;;;;17.15;3.80;;;19.30;99.90;;;;;;5071716;28;20040;-85
2022/10/17 10:02:18;;;;;;;12.52;3.65;;;19.30;99.90;;;;;;5071581;28;20131;-85
2022/10/17 10:05:00;;;;;;;16.02;3.25;;;19.30;99.90;;;;;;5066670;28;20027;-86
2022/10/17 10:07:32;;;;;;;12.48;3.83;;;19.20;99.90;;;;;;5072031;28;20409;-85
2022/10/17 10:09:58;;;;;;;12.27;4.07;;;19.20;99.90;;;;;;5065762;28;20025;-86
2022/10/17 10:12:34;;;;;;;16.30;3.45;;;19.30;99.90;;;;;;5065482;28;20491;-86
2022/10/17 10:15:00;;;;;;;11.20;3.38;;;19.30;99.90;;;;;;5068816;28;20473;-82
2022/10/17 10:17:40;;;;;;;14.68;3.38;;;19.40;99.90;;;;;;5055618;28;20113;-82
2022/10/17 10:20:35;;;;;;;10.38;3.65;;;19.50;99.90;;;;;;5054912;28;20043;-83
2022/10/17 10:23:06;;;;;;;19.90;3.90;;;19.50;99.90;;;;;;5056813;28;20266;-83
2022/10/17 10:25:34;;;;;;;10.32;3.97;;;19.50;99.90;;;;;;5070479;28;20138;-83
2022/10/17 10:28:00;;;;;;;14.38;3.92;;;19.40;99.90;;;;;;5055987;28;20025;-83
2022/10/17 10:30:29;;;;;;;15.82;4.47;;;19.40;99.90;;;;;;5059231;28;20017;-83
2022/10/17 10:32:59;;;;;;;12.88;4.38;;;19.30;99.90;;;;;;5054994;28;20028;-82
2022/10/17 10:35:34;;;;;;;13.55;3.50;;;19.30;99.90;;;;;;5097417;28;20012;-82
2022/10/17 10:38:02;;;;;;;11.95;3.80;;;19.50;99.90;;;;;;5080511;28;20073;-83
2022/10/17 10:40:37;;;;;;;12.57;4.18;;;19.60;99.90;;;;;;5068652;28;20198;-83
2022/10/17 10:43:05;;;;;;;11.43;3.88;;;19.60;99.90;;;;;;5071688;28;20013;-83
2022/10/17 10:45:36;;;;;;;15.57;4.72;;;19.70;99.90;;;;;;5066454;28;20216;-82
2022/10/17 10:48:20;;;;;;;14.82;4.25;;;19.80;99.90;;;;;;5067738;28;20021;-83
2022/10/17 10:50:54;;;;;;;12.45;4.10;;;19.80;99.90;;;;;;5066047;28;20021;-84
2022/10/17 10:53:37;;;;;;;14.63;4.47;;;19.80;99.90;;;;;;5053408;28;20461;-83
2022/10/17 10:56:16;;;;;;;12.65;4.28;;;19.90;99.90;;;;;;5054022;28;20025;-84
2022/10/17 10:58:47;;;;;;;13.88;4.28;;;20.00;99.90;;;;;;5050582;28;20413;-84
2022/10/17 11:01:24;;;;;;;11.70;3.78;;;20.10;99.90;;;;;;5066533;28;20496;-84
2022/10/17 11:04:01;;;;;;;18.23;4.68;;;20.10;99.90;;;;;;5057794;28;20017;-84
2022/10/17 11:06:31;;;;;;;13.20;4.30;;;20.20;99.90;;;;;;5069402;28;20025;-84
2022/10/17 11:08:56;;;;;;;11.15;3.75;;;20.10;99.90;;;;;;5063244;28;20040;-84
2022/10/17 11:11:38;;;;;;;14.32;4.60;;;19.90;99.90;;;;;;5058633;28;20059;-84
2022/10/17 11:14:36;;;;;;;11.82;4.32;;;19.90;99.90;;;;;;5052890;28;20017;-84
2022/10/17 11:17:13;;;;;;;12.27;3.70;;;20.00;99.90;;;;;;5037208;28;20055;-84
2022/10/17 11:20:10;;;;;;;15.10;4.72;;;20.20;99.90;;;;;;5052673;28;20029;-84
2022/10/17 11:22:45;;;;;;;9.38;3.40;;;20.10;99.90;;;;;;5026690;28;20128;-84
2022/10/17 11:25:11;;;;;;;11.82;4.53;;;19.90;99.90;;;;;;5052366;28;20031;-84
2022/10/17 11:27:37;;;;;;;12.55;4.00;;;19.80;99.90;;;;;;5049876;28;20103;-84
2022/10/17 11:30:04;;;;;;;13.88;4.25;;;19.70;99.90;;;;;;5050241;28;20128;-84
2022/10/17 11:32:53;;;;;;;12.75;3.90;;;19.70;99.90;;;;;;5056767;28;20020;-84
2022/10/17 11:35:25;;;;;;;16.60;4.53;;;19.60;99.90;;;;;;5061392;28;20055;-84
2022/10/17 11:38:16;;;;;;;13.05;4.20;;;19.50;99.90;;;;;;5055173;28;20096;-85
2022/10/17 11:40:47;;;;;;;13.57;4.70;;;19.50;99.90;;;;;;5063305;28;20032;-84
2022/10/17 11:43:15;;;;;;;13.98;4.75;;;19.40;99.90;;;;;;5053920;28;20032;-84
2022/10/17 11:45:48;;;;;;;18.48;5.13;;;19.40;99.90;;;;;;5078519;28;20031;-84
2022/10/17 11:48:33;;;;;;;13.07;4.72;;;19.40;99.90;;;;;;5053024;28;20040;-83
2022/10/17 11:51:09;;;;;;;13.18;4.70;;;19.30;99.90;;;;;;5063351;28;20067;-84
2022/10/17 11:53:55;;;;;;;13.95;5.07;;;19.30;99.90;;;;;;5050125;28;20509;-84
2022/10/17 11:56:35;;;;;;;12.52;4.80;;;19.40;99.90;;;;;;5049862;28;20036;-84
2022/10/17 11:59:38;;;;;;;13.50;4.20;;;19.40;99.90;;;;;;5060188;28;20073;-84
2022/10/17 12:02:41;;;;;;;11.10;4.22;;;19.50;99.90;;;;;;5056409;28;20496;-84
2022/10/17 12:05:23;;;;;;;15.20;4.43;;;19.60;99.90;;;;;;5044724;28;20043;-84
2022/10/17 12:08:08;;;;;;;11.50;4.32;;;19.90;99.90;;;;;;5056047;28;20036;-84
2022/10/17 12:10:58;;;;;;;16.77;4.97;;;19.90;99.90;;;;;;5057216;28;20025;-84
2022/10/17 12:13:26;;;;;;;13.88;4.93;;;19.90;99.90;;;;;;5054572;28;20081;-84
2022/10/17 12:15:56;;;;;;;11.80;4.38;;;19.80;99.90;;;;;;5059459;28;20050;-84
2022/10/17 12:18:28;;;;;;;8.88;4.15;;;19.80;99.90;;;;;;5056749;28;20024;-84
2022/10/17 12:20:59;;;;;;;17.05;4.60;;;19.70;99.90;;;;;;5053022;28;20055;-84
2022/10/17 12:23:29;;;;;;;18.10;4.47;;;19.70;99.90;;;;;;5054600;28;20025;-84
2022/10/17 12:26:03;;;;;;;12.07;4.93;;;19.70;99.90;;;;;;5051424;28;20029;-84
2022/10/17 12:28:29;;;;;;;;;;;19.60;99.90;;;;;;5051983;28;20032;-84
2022/10/17 12:31:14;;;;;;;11.15;4.93;;;19.40;99.90;;;;;;5050034;28;19905;-84
2022/10/17 12:33:55;;;;;;;11.40;4.30;;;19.20;99.90;;;;;;5068602;28;20524;-84
2022/10/17 12:36:21;;;;;;;13.15;4.28;;;19.10;99.90;;;;;;5055277;28;20390;-84
2022/10/17 12:39:10;;;;;;;10.68;4.35;;;19.00;99.90;;;;;;5059860;28;20024;-84
2022/10/17 12:41:39;;;;;;;15.32;4.63;;;18.90;99.90;;;;;;5035211;28;20045;-84
2022/10/17 12:44:25;;;;;;;14.63;3.78;;;18.90;99.90;;;;;;5055384;28;20030;-84
2022/10/17 12:47:04;;;;;;;16.02;4.03;;;18.80;99.90;;;;;;5047010;28;20409;-84
2022/10/17 12:49:41;;;;;;;15.80;4.88;;;18.80;99.90;;;;;;5051729;28;20385;-83
2022/10/17 12:52:34;;;;;;;15.70;4.65;;;18.90;99.90;;;;;;5052234;28;20388;-83
2022/10/17 12:55:02;;;;;;;11.35;4.65;;;18.90;99.90;;;;;;5050210;28;20175;-83
2022/10/17 12:57:52;;;;;;;16.65;4.90;;;18.80;99.90;;;;;;5054707;28;20020;-82